Time;durP1;ratioP1;P1;durP2;ratioP2;P2;SDS_P1;SDS_P2;PMS_P1;PMS_P2;Temp;Humidity;BMP_temperature;BMP_pressure;BME280_temperature;BME280_humidity;BME280_pressure;Samples;Min_cycle;Max_cycle;Signal;HPM_P1;HPM_P2
2022/07/15 00:01:33;;;;;;;5.67;3.03;;;;;;;24.99;36.02;97732.59;5037036;28;20601;-71
2022/07/15 00:04:00;;;;;;;5.40;2.70;;;;;;;25.00;36.12;97731.53;5066661;28;20215;-73
2022/07/15 00:06:25;;;;;;;4.70;2.37;;;;;;;24.90;35.97;97739.34;5064067;28;20432;-74
2022/07/15 00:08:51;;;;;;;10.80;2.97;;;;;;;24.81;36.31;97730.03;5065042;28;20421;-71
2022/07/15 00:11:16;;;;;;;5.07;2.70;;;;;;;24.82;36.82;97729.78;5070931;28;20194;-71
2022/07/15 00:13:42;;;;;;;9.90;2.73;;;;;;;24.74;36.70;97734.66;5071431;28;20715;-72
2022/07/15 00:16:07;;;;;;;9.30;3.07;;;;;;;24.78;36.99;97736.66;5070440;28;20186;-71
2022/07/15 00:18:33;;;;;;;5.10;3.47;;;;;;;24.77;36.97;97737.69;5070710;28;20233;-71
2022/07/15 00:20:58;;;;;;;4.93;2.70;;;;;;;24.64;37.13;97733.34;5070838;28;20190;-71
2022/07/15 00:23:23;;;;;;;10.40;2.97;;;;;;;24.65;37.48;97734.97;5066195;28;20185;-69
2022/07/15 00:25:49;;;;;;;4.50;2.53;;;;;;;24.61;37.13;97733.00;5076943;28;20266;-71
2022/07/15 00:28:15;;;;;;;3.67;2.80;;;;;;;24.55;37.25;97737.41;5070718;28;20260;-74
2022/07/15 00:30:41;;;;;;;4.20;2.63;;;;;;;24.50;37.56;97735.44;5070691;28;20198;-71
2022/07/15 00:33:07;;;;;;;3.30;2.80;;;;;;;24.34;38.03;97734.19;5070319;28;20433;-70
2022/07/15 00:35:34;;;;;;;4.77;3.07;;;;;;;24.30;37.89;97737.56;5063069;28;20900;-72
2022/07/15 00:38:00;;;;;;;6.97;2.57;;;;;;;24.15;37.70;97738.00;5058773;28;20456;-70
2022/07/15 00:40:26;;;;;;;4.73;2.70;;;;;;;24.14;37.67;97731.00;5062546;28;20958;-70
2022/07/15 00:42:52;;;;;;;4.53;2.70;;;;;;;24.14;37.32;97737.16;5067625;28;20519;-72
2022/07/15 00:45:21;;;;;;;3.20;2.90;;;;;;;24.05;37.19;97738.53;5070236;28;20240;-71
2022/07/15 00:47:51;;;;;;;6.43;2.90;;;;;;;23.95;38.28;97728.31;5070399;28;20182;-70
2022/07/15 00:50:18;;;;;;;5.73;3.20;;;;;;;23.90;38.23;97729.00;5068542;28;20494;-70
2022/07/15 00:52:47;;;;;;;3.20;2.50;;;;;;;23.78;38.26;97733.47;5070511;28;20408;-71
2022/07/15 00:55:13;;;;;;;4.00;2.60;;;;;;;23.71;38.43;97728.22;5069153;28;20424;-71
2022/07/15 00:57:49;;;;;;;5.53;2.70;;;;;;;23.63;38.77;97733.88;5065071;28;20432;-71
2022/07/15 01:00:14;;;;;;;4.53;3.07;;;;;;;23.60;38.94;97731.63;5069072;28;20202;-69
2022/07/15 01:02:43;;;;;;;4.90;3.13;;;;;;;23.54;39.45;97727.19;5070304;28;20964;-70
2022/07/15 01:05:10;;;;;;;5.10;2.97;;;;;;;23.42;39.62;97730.63;5068111;28;20244;-72
2022/07/15 01:07:36;;;;;;;5.60;2.73;;;;;;;23.35;39.70;97729.84;5070374;28;20413;-72
2022/07/15 01:10:02;;;;;;;7.33;2.80;;;;;;;23.33;39.85;97729.25;5070618;28;20448;-70
2022/07/15 01:12:27;;;;;;;7.40;3.50;;;;;;;23.29;40.04;97730.75;5071015;28;20202;-71
2022/07/15 01:14:53;;;;;;;4.03;2.70;;;;;;;23.22;39.83;97738.00;5064230;28;20194;-70
2022/07/15 01:17:18;;;;;;;4.20;3.03;;;;;;;23.27;39.62;97732.84;5069653;28;20228;-70
2022/07/15 01:19:44;;;;;;;3.10;2.80;;;;;;;23.28;39.69;97734.47;5070271;28;20202;-72
2022/07/15 01:22:09;;;;;;;5.27;2.97;;;;;;;23.16;39.50;97737.00;5077125;28;20181;-71
2022/07/15 01:24:35;;;;;;;5.97;2.77;;;;;;;23.08;39.98;97746.13;5069014;28;20542;-71
2022/07/15 01:27:01;;;;;;;7.73;3.03;;;;;;;23.08;39.89;97743.44;5069549;28;20200;-72
2022/07/15 01:29:27;;;;;;;10.97;3.10;;;;;;;23.04;39.97;97744.94;5068646;28;20688;-70
2022/07/15 01:31:53;;;;;;;3.33;2.87;;;;;;;23.07;39.91;97744.47;5070222;28;20510;-71
2022/07/15 01:34:19;;;;;;;5.97;2.90;;;;;;;23.14;39.97;97745.25;5069720;28;20916;-73
2022/07/15 01:36:44;;;;;;;3.03;2.73;;;;;;;22.99;40.24;97744.78;5070722;28;20232;-71
2022/07/15 01:39:10;;;;;;;8.03;2.77;;;;;;;;;;5069789;28;20174;-70
2022/07/15 01:41:35;;;;;;;2.63;2.43;;;;;;;22.97;40.07;97753.03;5069971;28;20677;-72
2022/07/15 01:44:01;;;;;;;3.93;3.00;;;;;;;22.89;40.40;97747.94;5070106;28;20197;-69
2022/07/15 01:46:26;;;;;;;5.97;3.10;;;;;;;22.75;40.46;97749.91;5069196;28;20178;-69
2022/07/15 01:51:35;;;;;;;2.87;2.43;;;;;;;22.73;40.30;97751.97;5077537;28;20198;-73
2022/07/15 01:54:01;;;;;;;3.70;2.87;;;;;;;22.69;39.70;97753.44;5073957;28;20428;-73
2022/07/15 01:56:27;;;;;;;3.07;2.70;;;;;;;22.61;39.27;97759.06;5073832;28;20221;-71
2022/07/15 01:58:52;;;;;;;2.90;2.60;;;;;;;22.65;39.11;97750.38;5073624;28;20210;-72
2022/07/15 02:01:18;;;;;;;2.80;2.27;;;;;;;22.69;39.04;97751.59;5073887;28;20212;-71
2022/07/15 02:03:44;;;;;;;3.20;2.83;;;;;;;22.63;39.61;97754.31;5073139;28;20186;-71
2022/07/15 02:06:10;;;;;;;3.23;2.70;;;;;;;22.52;39.91;97754.00;5072891;28;20183;-71
2022/07/15 02:08:35;;;;;;;3.60;2.50;;;;;;;22.61;39.57;97751.03;5073143;28;20423;-71
2022/07/15 02:11:00;;;;;;;5.10;2.73;;;;;;;22.58;40.01;97735.44;5075409;28;20732;-72
2022/07/15 02:13:26;;;;;;;3.60;2.67;;;;;;;22.54;39.58;97751.09;5067600;28;20257;-71
2022/07/15 02:15:51;;;;;;;2.77;2.53;;;;;;;22.47;39.73;97745.00;5073156;28;20174;-72
2022/07/15 02:18:17;;;;;;;5.03;2.50;;;;;;;22.41;39.92;97738.66;5072541;28;20740;-71
2022/07/15 02:20:42;;;;;;;4.23;2.60;;;;;;;22.30;40.18;97747.31;5073239;28;20229;-70
2022/07/15 02:23:09;;;;;;;7.03;2.80;;;;;;;22.22;40.33;97738.53;5072776;28;20257;-72
2022/07/15 02:25:35;;;;;;;2.80;2.43;;;;;;;22.14;40.59;97741.44;5073100;28;20183;-72
2022/07/15 02:28:03;;;;;;;4.87;2.60;;;;;;;22.14;40.77;97745.97;5067999;28;20440;-70
2022/07/15 02:30:35;;;;;;;5.93;2.70;;;;;;;22.08;40.73;97742.28;5072793;28;20233;-70
2022/07/15 02:33:01;;;;;;;5.20;3.03;;;;;;;22.04;41.11;97744.56;5071237;28;20943;-70
2022/07/15 02:35:28;;;;;;;4.20;2.83;;;;;;;21.98;41.60;97741.94;5058202;28;20430;-71
2022/07/15 02:37:53;;;;;;;5.10;3.00;;;;;;;21.94;41.73;97742.34;5061735;28;20433;-70
2022/07/15 02:40:19;;;;;;;3.27;2.60;;;;;;;21.88;41.68;97732.56;5061836;28;20584;-69
2022/07/15 02:42:52;;;;;;;7.50;2.80;;;;;;;21.89;41.40;97728.84;5064450;28;20265;-72
2022/07/15 02:45:19;;;;;;;8.07;3.00;;;;;;;21.86;41.71;97739.94;5065213;28;20189;-70
2022/07/15 02:47:45;;;;;;;4.10;2.70;;;;;;;21.79;41.45;97739.16;5061152;28;20421;-72
2022/07/15 02:50:11;;;;;;;4.60;2.80;;;;;;;21.77;42.01;97736.69;5061323;28;20453;-71
2022/07/15 02:52:36;;;;;;;3.40;2.40;;;;;;;21.59;42.25;97739.22;5062131;28;20567;-71
2022/07/15 02:55:03;;;;;;;4.03;3.10;;;;;;;21.56;42.37;97740.41;5063712;28;20183;-71
2022/07/15 02:57:28;;;;;;;2.77;2.50;;;;;;;21.46;43.01;97745.38;5061930;28;20672;-71
2022/07/15 02:59:54;;;;;;;6.70;3.00;;;;;;;21.53;42.49;97737.38;5064129;28;20444;-71
2022/07/15 03:02:19;;;;;;;4.50;2.80;;;;;;;21.47;42.74;97745.19;5064803;28;20190;-71
2022/07/15 03:04:45;;;;;;;5.03;2.80;;;;;;;21.46;42.99;97745.38;5061365;28;20261;-71
2022/07/15 03:07:10;;;;;;;4.57;3.17;;;;;;;21.38;43.01;97750.94;5062297;28;20197;-71
2022/07/15 03:09:37;;;;;;;3.50;2.77;;;;;;;21.35;42.73;97751.34;5069016;28;20556;-71
2022/07/15 03:12:02;;;;;;;7.80;3.20;;;;;;;21.22;42.76;97750.34;5060650;28;20332;-72
2022/07/15 03:14:28;;;;;;;4.57;2.80;;;;;;;21.21;43.46;97747.91;5071382;28;20433;-71
2022/07/15 03:16:53;;;;;;;4.23;2.90;;;;;;;21.19;43.62;97753.44;5071888;28;20183;-70
2022/07/15 03:19:20;;;;;;;10.20;3.07;;;;;;;21.11;43.39;97751.78;5067089;28;20224;-72
2022/07/15 03:21:46;;;;;;;7.13;3.10;;;;;;;21.10;43.65;97749.34;5071280;28;20265;-71
2022/07/15 03:24:13;;;;;;;4.90;2.80;;;;;;;21.08;43.55;97748.72;5069508;28;20511;-71
2022/07/15 03:26:38;;;;;;;4.10;3.10;;;;;;;21.08;43.37;97748.72;5068080;28;20265;-71
2022/07/15 03:29:05;;;;;;;5.40;2.70;;;;;;;20.91;43.49;97746.50;5072018;28;20795;-72
2022/07/15 03:31:30;;;;;;;9.10;3.47;;;;;;;20.89;43.46;97753.88;5069093;28;20263;-72
2022/07/15 03:33:56;;;;;;;6.80;3.10;;;;;;;20.84;43.78;97751.84;5071704;28;20955;-71
2022/07/15 03:36:23;;;;;;;4.13;2.90;;;;;;;20.88;43.62;97760.22;5072449;28;20183;-71
2022/07/15 03:38:51;;;;;;;8.27;3.10;;;;;;;20.90;43.58;97755.53;5062555;28;20185;-70
2022/07/15 03:41:17;;;;;;;5.57;3.10;;;;;;;20.93;43.79;97752.44;5069315;28;20448;-72
2022/07/15 03:43:42;;;;;;;4.83;2.90;;;;;;;20.81;43.92;97754.06;5071122;28;20475;-73
2022/07/15 03:46:08;;;;;;;5.30;3.13;;;;;;;20.71;43.92;97760.59;5056993;28;21190;-72
2022/07/15 03:48:33;;;;;;;3.90;3.50;;;;;;;20.64;44.24;97759.78;5062694;28;20175;-71
2022/07/15 03:50:59;;;;;;;4.33;3.60;;;;;;;20.59;44.53;97756.91;5070344;28;20195;-71
2022/07/15 03:53:24;;;;;;;5.33;3.43;;;;;;;20.68;44.16;97768.19;5069912;28;20178;-70
2022/07/15 03:55:50;;;;;;;4.73;3.60;;;;;;;20.61;44.68;97767.34;5071282;28;20266;-71
2022/07/15 03:58:15;;;;;;;4.70;3.40;;;;;;;20.55;44.33;97766.31;5070067;28;20280;-71
2022/07/15 04:00:41;;;;;;;5.83;3.60;;;;;;;20.57;44.37;97761.59;5059398;28;20198;-70
2022/07/15 04:03:06;;;;;;;3.60;3.23;;;;;;;20.64;44.26;97762.44;5070192;28;20178;-70
2022/07/15 04:05:32;;;;;;;6.30;3.37;;;;;;;20.70;44.17;97760.81;5052792;28;20186;-71
2022/07/15 04:07:57;;;;;;;5.40;3.00;;;;;;;20.71;44.14;97755.28;5067711;28;20178;-71
2022/07/15 04:10:23;;;;;;;5.80;3.80;;;;;;;20.64;44.74;97765.09;5072858;28;20208;-71
2022/07/15 04:12:48;;;;;;;7.00;3.40;;;;;;;20.53;45.26;97763.84;5067491;28;20604;-72
2022/07/15 04:15:14;;;;;;;7.10;3.37;;;;;;;20.58;45.37;97765.91;5068207;28;20770;-71
2022/07/15 04:17:41;;;;;;;6.60;3.30;;;;;;;20.54;45.56;97762.03;5060910;28;20189;-70
2022/07/15 04:20:07;;;;;;;5.97;3.53;;;;;;;20.50;45.52;97771.44;5069432;28;20202;-73
2022/07/15 04:22:43;;;;;;;6.30;3.90;;;;;;;20.49;45.85;97775.13;5070424;28;20804;-70
2022/07/15 04:25:11;;;;;;;8.43;3.10;;;;;;;20.54;45.69;97778.00;5067428;28;20448;-71
2022/07/15 04:27:37;;;;;;;6.50;3.23;;;;;;;20.58;45.06;97770.44;5070211;28;20428;-70
2022/07/15 04:30:05;;;;;;;10.53;3.27;;;;;;;20.50;45.93;97777.56;5067201;28;20810;-70
2022/07/15 04:32:31;;;;;;;6.47;3.30;;;;;;;20.40;46.09;97777.97;5060933;28;20827;-71
2022/07/15 04:34:56;;;;;;;6.23;3.30;;;;;;;20.51;45.96;97773.88;5070048;28;20428;-72
2022/07/15 04:37:21;;;;;;;9.80;3.00;;;;;;;20.52;46.07;97777.38;5068473;28;20186;-73
2022/07/15 04:39:47;;;;;;;7.80;3.60;;;;;;;20.57;46.23;97769.59;5064861;28;20217;-71
2022/07/15 04:42:13;;;;;;;5.80;3.30;;;;;;;20.65;45.71;97761.44;5057398;28;20268;-71
2022/07/15 04:44:38;;;;;;;3.90;2.70;;;;;;;20.66;45.55;97768.41;5052030;28;20202;-71
2022/07/15 04:47:04;;;;;;;9.50;2.93;;;;;;;20.72;45.53;97767.56;5046176;28;20262;-72
2022/07/15 04:52:14;;;;;;;3.30;3.00;;;;;;;20.82;45.94;97775.19;5069620;28;20220;-71
2022/07/15 04:54:40;;;;;;;5.97;3.67;;;;;;;20.86;46.09;97772.94;5070131;28;20412;-70
2022/07/15 04:57:05;;;;;;;6.10;3.40;;;;;;;20.85;45.74;97774.78;5068653;28;20450;-71
2022/07/15 04:59:32;;;;;;;7.50;3.50;;;;;;;20.90;45.58;97771.50;5069941;28;20208;-71
2022/07/15 05:01:57;;;;;;;5.60;3.17;;;;;;;20.98;45.50;97771.28;5069616;28;20179;-71
2022/07/15 05:04:23;;;;;;;5.00;3.20;;;;;;;21.09;45.67;97771.69;5068584;28;20421;-73
2022/07/15 05:06:48;;;;;;;16.60;4.00;;;;;;;21.10;45.40;97774.16;5069421;28;20183;-71
2022/07/15 05:09:14;;;;;;;3.60;3.00;;;;;;;21.16;45.06;97768.00;5072427;28;20177;-71
2022/07/15 05:11:39;;;;;;;5.57;3.90;;;;;;;21.24;44.89;97766.13;5069571;28;20213;-73
2022/07/15 05:14:05;;;;;;;6.40;3.50;;;;;;;21.30;44.76;97774.13;5068905;28;20262;-71
2022/07/15 05:16:30;;;;;;;4.63;3.23;;;;;;;21.40;45.07;97775.56;5066470;28;20221;-71
2022/07/15 05:18:56;;;;;;;6.53;5.17;;;;;;;21.45;45.66;97776.56;5057361;28;20179;-72
2022/07/15 05:21:22;;;;;;;12.17;10.47;;;;;;;21.56;45.34;97775.09;5052760;28;20203;-71
2022/07/15 05:23:47;;;;;;;13.30;11.10;;;;;;;21.69;45.22;97770.78;5056691;28;20422;-71
2022/07/15 05:26:12;;;;;;;10.70;9.63;;;;;;;21.85;45.45;97772.19;5059254;28;20823;-71
2022/07/15 05:28:39;;;;;;;7.57;6.80;;;;;;;21.99;44.66;97770.25;5065759;28;20324;-70
2022/07/15 05:31:05;;;;;;;6.93;4.83;;;;;;;22.11;43.94;97779.25;5058629;28;20621;-72
2022/07/15 05:33:31;;;;;;;7.97;4.20;;;;;;;22.17;43.38;97777.56;5055205;28;21048;-71
2022/07/15 05:35:56;;;;;;;5.23;3.57;;;;;;;22.09;43.26;97781.28;5060092;28;20448;-70
2022/07/15 05:38:23;;;;;;;4.30;3.40;;;;;;;22.14;43.31;97784.16;5068233;28;20179;-70
2022/07/15 05:40:48;;;;;;;5.23;3.90;;;;;;;22.20;43.14;97788.63;5058436;28;20195;-70
2022/07/15 05:43:14;;;;;;;5.57;3.80;;;;;;;22.32;43.27;97793.28;5065620;28;20447;-71
2022/07/15 05:45:39;;;;;;;5.63;2.90;;;;;;;22.38;42.58;97785.25;5063806;28;20231;-74
2022/07/15 05:48:05;;;;;;;9.07;4.10;;;;;;;22.55;43.05;97788.28;5063148;28;20202;-72
2022/07/15 05:50:30;;;;;;;4.33;3.20;;;;;;;22.68;42.79;97794.56;5060109;28;20204;-71
2022/07/15 05:52:56;;;;;;;4.43;3.40;;;;;;;22.78;42.31;97794.91;5063058;28;20202;-72
2022/07/15 05:55:21;;;;;;;10.83;3.60;;;;;;;22.94;42.35;97796.22;5064808;28;20186;-72
2022/07/15 05:57:46;;;;;;;4.27;3.00;;;;;;;23.06;41.38;97793.63;5059907;28;20572;-73
2022/07/15 06:00:13;;;;;;;8.00;3.20;;;;;;;23.13;40.47;97793.56;5056293;28;20198;-71
2022/07/15 06:02:38;;;;;;;5.67;3.50;;;;;;;23.28;41.02;97796.75;5053579;28;20173;-74
2022/07/15 06:05:04;;;;;;;7.37;3.10;;;;;;;23.41;40.43;97793.16;5058991;28;20429;-71
2022/07/15 06:07:29;;;;;;;2.90;2.53;;;;;;;23.51;39.38;97789.97;5081147;28;20180;-71
2022/07/15 06:09:55;;;;;;;8.17;3.00;;;;;;;23.63;38.60;97796.22;5083665;28;20216;-72
2022/07/15 06:12:20;;;;;;;3.80;2.83;;;;;;;23.74;37.33;97791.97;5075814;28;20647;-72
2022/07/15 06:14:46;;;;;;;3.30;2.67;;;;;;;23.86;38.17;97793.91;5082795;28;20251;-73
2022/07/15 06:17:11;;;;;;;4.20;2.53;;;;;;;24.02;38.10;97798.69;5079926;28;20178;-74
2022/07/15 06:19:37;;;;;;;5.07;2.87;;;;;;;24.12;37.53;97798.16;5059041;28;20203;-71
2022/07/15 06:22:04;;;;;;;5.33;2.40;;;;;;;24.22;37.11;97794.94;5059555;28;20230;-71
2022/07/15 06:24:29;;;;;;;4.10;2.30;;;;;;;24.33;36.86;97799.50;5059552;28;20528;-70
2022/07/15 06:26:54;;;;;;;6.13;2.70;;;;;;;24.47;36.61;97796.66;5059363;28;20513;-70
2022/07/15 06:29:20;;;;;;;6.13;3.10;;;;;;;24.61;36.70;97798.09;5060941;28;20190;-72
2022/07/15 06:31:46;;;;;;;5.57;2.80;;;;;;;24.72;35.78;97790.34;5058300;28;20248;-71
2022/07/15 06:34:11;;;;;;;10.50;2.43;;;;;;;24.83;35.52;97792.22;5060807;28;20688;-71
2022/07/15 06:36:37;;;;;;;9.60;2.60;;;;;;;24.95;35.72;97786.91;5065598;28;20269;-72
2022/07/15 06:39:03;;;;;;;5.50;2.43;;;;;;;25.07;34.91;97787.72;5063251;28;20186;-71
2022/07/15 06:41:31;;;;;;;6.00;2.90;;;;;;;25.15;34.11;97787.38;5046387;28;20197;-72
2022/07/15 06:43:57;;;;;;;3.57;2.50;;;;;;;25.23;33.43;97791.56;5063672;28;22148;-71
2022/07/15 06:46:22;;;;;;;4.73;3.10;;;;;;;25.35;34.12;97782.72;5063540;28;20421;-71
2022/07/15 06:48:48;;;;;;;5.53;2.70;;;;;;;25.46;33.42;97784.59;5060622;28;20478;-71
2022/07/15 06:51:13;;;;;;;5.83;2.60;;;;;;;25.57;32.93;97783.78;5063570;28;20203;-73
2022/07/15 06:53:38;;;;;;;8.30;2.40;;;;;;;25.65;32.62;97787.16;5064969;28;20574;-71
2022/07/15 06:56:04;;;;;;;4.30;2.13;;;;;;;25.79;32.54;97782.34;5077056;28;20268;-74
2022/07/15 06:58:29;;;;;;;4.37;2.50;;;;;;;25.91;31.73;97785.81;5074612;28;20204;-74
2022/07/15 07:00:55;;;;;;;3.53;2.47;;;;;;;26.03;31.93;97780.41;5073076;28;20219;-71
2022/07/15 07:03:20;;;;;;;6.27;2.40;;;;;;;26.15;32.27;97777.72;5081212;28;20278;-72
2022/07/15 07:05:46;;;;;;;5.70;2.80;;;;;;;26.20;31.41;97783.19;5066237;28;20183;-74
2022/07/15 07:08:12;;;;;;;3.90;2.13;;;;;;;26.36;31.78;97779.72;5076734;28;20194;-71
2022/07/15 07:10:37;;;;;;;3.63;2.10;;;;;;;26.51;31.60;97773.00;5078227;28;20212;-71
2022/07/15 07:13:02;;;;;;;3.53;2.50;;;;;;;26.62;30.09;97779.34;5078424;28;20653;-72
2022/07/15 07:15:28;;;;;;;5.03;2.33;;;;;;;26.69;28.64;97780.03;5083060;28;20197;-71
2022/07/15 07:17:54;;;;;;;11.53;2.10;;;;;;;26.81;29.55;97778.13;5087323;28;20171;-71
2022/07/15 07:20:19;;;;;;;7.33;2.63;;;;;;;26.89;29.11;97773.38;5081146;28;20198;-72
2022/07/15 07:22:45;;;;;;;3.30;2.10;;;;;;;27.00;29.54;97785.13;5085262;28;20178;-72
2022/07/15 07:25:10;;;;;;;4.10;2.00;;;;;;;27.07;28.15;97778.53;5077066;28;20250;-72
2022/07/15 07:27:36;;;;;;;3.13;1.87;;;;;;;27.15;28.32;97785.34;5091594;28;20566;-72
2022/07/15 07:30:04;;;;;;;3.50;2.10;;;;;;;27.28;28.09;97782.31;5071182;28;20211;-71
2022/07/15 07:32:30;;;;;;;4.70;2.10;;;;;;;27.41;28.41;97781.16;5072541;28;20301;-73
2022/07/15 07:34:56;;;;;;;4.17;2.10;;;;;;;27.50;28.26;97778.06;5072049;28;20457;-74
2022/07/15 07:37:22;;;;;;;5.17;2.13;;;;;;;27.54;27.12;97779.19;5057475;28;20917;-71
2022/07/15 07:39:48;;;;;;;3.97;2.20;;;;;;;27.55;27.04;97787.00;5059551;28;20261;-73
2022/07/15 07:42:14;;;;;;;3.27;2.20;;;;;;;27.57;27.12;97781.41;5066031;28;20412;-71
2022/07/15 07:44:39;;;;;;;5.07;2.23;;;;;;;27.59;26.90;97781.97;5055856;28;20187;-71
2022/07/15 07:47:05;;;;;;;4.50;2.33;;;;;;;27.66;27.63;97776.41;5056702;28;20204;-72
2022/07/15 07:49:30;;;;;;;3.90;2.10;;;;;;;27.72;27.24;97780.78;5056134;28;20197;-72
2022/07/15 07:51:56;;;;;;;7.53;2.23;;;;;;;27.81;27.18;97776.56;5057402;28;20207;-71
2022/07/15 07:54:21;;;;;;;8.83;2.10;;;;;;;27.93;26.77;97771.06;5061230;28;20634;-71
2022/07/15 07:56:47;;;;;;;5.83;2.30;;;;;;;27.98;26.52;97778.41;5069525;28;20595;-70
2022/07/15 07:59:12;;;;;;;4.90;2.30;;;;;;;28.09;26.38;97776.66;5054728;28;20260;-71
2022/07/15 08:01:38;;;;;;;5.60;2.27;;;;;;;28.20;26.97;97775.72;5079306;28;20257;-73
2022/07/15 08:04:04;;;;;;;5.50;2.27;;;;;;;28.26;26.84;97774.69;5074466;28;20273;-73
2022/07/15 08:06:29;;;;;;;4.10;1.93;;;;;;;28.34;26.37;97771.56;5059652;28;20691;-72
2022/07/15 08:08:55;;;;;;;7.30;2.20;;;;;;;28.40;26.09;97774.28;5087200;28;20712;-71
2022/07/15 08:11:20;;;;;;;8.67;2.13;;;;;;;28.49;26.06;97770.88;5075693;28;20285;-72
2022/07/15 08:13:46;;;;;;;7.40;2.20;;;;;;;28.56;25.70;97773.38;5065897;28;20190;-71
2022/07/15 08:16:11;;;;;;;6.83;2.17;;;;;;;28.66;26.01;97768.06;5065111;28;20179;-72
2022/07/15 08:18:37;;;;;;;5.47;2.23;;;;;;;28.74;25.86;97768.69;5059004;28;20179;-72
2022/07/15 08:21:03;;;;;;;6.10;2.10;;;;;;;28.84;25.26;97768.78;5056130;28;20253;-70
2022/07/15 08:23:31;;;;;;;10.70;1.90;;;;;;;28.88;26.08;97764.47;5062656;28;20204;-72
2022/07/15 08:25:56;;;;;;;6.07;2.10;;;;;;;29.02;25.74;97772.13;5058451;28;20878;-71
2022/07/15 08:28:22;;;;;;;6.10;2.10;;;;;;;29.08;25.84;97771.13;5076048;28;20517;-69
2022/07/15 08:30:47;;;;;;;8.80;2.10;;;;;;;29.11;25.34;97768.72;5066886;28;20210;-70
2022/07/15 08:33:13;;;;;;;4.27;1.80;;;;;;;29.14;25.94;97771.97;5056798;28;20214;-70
2022/07/15 08:35:41;;;;;;;2.47;2.00;;;;;;;29.28;25.11;97773.94;5074295;28;20239;-71
2022/07/15 08:38:07;;;;;;;6.37;1.90;;;;;;;29.39;24.56;97761.34;5061187;28;20440;-70
2022/07/15 08:40:33;;;;;;;4.37;2.10;;;;;;;29.48;24.58;97766.25;5064651;28;20482;-71
2022/07/15 08:42:59;;;;;;;2.20;1.70;;;;;;;29.56;25.02;97763.88;5079343;28;20412;-71
2022/07/15 08:45:24;;;;;;;2.90;1.80;;;;;;;29.63;24.50;97762.81;5067036;28;20419;-71
2022/07/15 08:47:52;;;;;;;11.07;2.20;;;;;;;29.68;24.32;97768.25;5078622;28;20649;-71
2022/07/15 08:50:18;;;;;;;2.80;2.00;;;;;;;29.75;24.23;97766.09;5077920;28;20638;-71
2022/07/15 08:52:45;;;;;;;6.60;2.20;;;;;;;29.84;23.90;97766.41;5071819;28;20538;-71
2022/07/15 08:55:11;;;;;;;7.20;2.30;;;;;;;29.93;23.77;97764.00;5069451;28;20416;-70
2022/07/15 08:57:37;;;;;;;4.47;2.20;;;;;;;30.01;24.34;97769.75;5081890;28;20411;-72
2022/07/15 09:00:10;;;;;;;8.50;3.40;;;;;;;30.15;24.14;97763.84;5072431;28;20712;-70
2022/07/15 09:02:37;;;;;;;3.40;2.10;;;;;;;30.18;23.54;97769.53;5076487;28;20177;-72
2022/07/15 09:05:18;;;;;;;3.67;2.07;;;;;;;30.28;23.55;97766.03;5061911;28;20435;-73
2022/07/15 09:08:15;;;;;;;4.23;1.90;;;;;;;30.40;23.67;97764.97;5079427;28;20420;-73
2022/07/15 09:10:55;;;;;;;2.83;2.13;;;;;;;30.36;23.16;97766.56;5067194;28;20437;-71
2022/07/15 09:13:23;;;;;;;3.47;1.80;;;;;;;30.41;23.11;97767.41;5062334;28;20467;-72
2022/07/15 09:15:49;;;;;;;3.63;2.00;;;;;;;30.41;22.73;97772.00;5068329;28;20411;-72
2022/07/15 09:18:17;;;;;;;4.23;2.20;;;;;;;30.49;23.24;97769.59;5073025;28;20506;-72
2022/07/15 09:20:44;;;;;;;7.10;3.80;;;;;;;30.41;23.46;97772.00;5064347;28;20491;-72
2022/07/15 09:23:11;;;;;;;5.73;2.13;;;;;;;30.41;23.15;97770.09;5062340;28;20835;-71
2022/07/15 09:25:38;;;;;;;4.80;2.40;;;;;;;30.45;23.13;97773.91;5086318;28;20424;-73
2022/07/15 09:28:05;;;;;;;4.90;2.43;;;;;;;30.46;23.04;97764.72;5076908;28;21035;-71
2022/07/15 09:33:39;;;;;;;3.83;2.73;;;;;;;30.83;22.62;97768.25;5065672;28;20485;-72
2022/07/15 09:36:05;;;;;;;4.93;2.40;;;;;;;30.97;22.25;97765.84;5067310;28;20421;-72
2022/07/15 09:38:50;;;;;;;2.87;1.90;;;;;;;30.77;22.39;97770.16;5068796;28;20408;-71
2022/07/15 09:41:39;;;;;;;3.53;2.07;;;;;;;30.97;22.32;97768.53;5079666;28;20664;-71
2022/07/15 09:44:25;;;;;;;5.47;2.40;;;;;;;31.08;22.70;97772.03;5096191;28;20467;-74
2022/07/15 09:46:52;;;;;;;5.23;3.30;;;;;;;31.18;22.23;97773.94;5081275;28;20429;-71
2022/07/15 09:49:26;;;;;;;2.43;2.23;;;;;;;30.93;22.20;97778.28;5078237;28;20417;-72
2022/07/15 09:51:58;;;;;;;6.70;2.20;;;;;;;30.74;22.47;97775.28;5086498;28;20469;-74
2022/07/15 09:54:31;;;;;;;5.37;2.20;;;;;;;30.82;22.98;97771.25;5088508;28;20482;-71
2022/07/15 09:57:02;;;;;;;2.20;2.00;;;;;;;30.79;22.51;97773.41;5088102;28;20521;-71
2022/07/15 09:59:29;;;;;;;4.20;2.10;;;;;;;30.84;22.80;97774.50;5082533;28;20432;-71
2022/07/15 10:01:55;;;;;;;3.57;2.20;;;;;;;31.07;22.76;97771.22;5072896;28;20753;-72
2022/07/15 10:04:22;;;;;;;3.67;1.87;;;;;;;31.19;23.29;97772.88;5080529;28;20512;-71
2022/07/15 10:06:50;;;;;;;6.03;3.57;;;;;;;31.48;23.14;97774.97;5081281;28;20435;-71
2022/07/15 10:09:16;;;;;;;2.40;2.20;;;;;;;31.72;22.83;97777.88;5087202;28;20415;-71
2022/07/15 10:11:46;;;;;;;3.73;1.83;;;;;;;31.81;21.95;97770.00;5076223;28;20845;-73
2022/07/15 10:14:30;;;;;;;2.43;1.80;;;;;;;31.69;21.81;97768.44;5078681;28;20427;-71
2022/07/15 10:16:58;;;;;;;2.33;1.83;;;;;;;31.84;22.98;97769.44;5086713;28;21205;-70
2022/07/15 10:19:26;;;;;;;3.77;2.20;;;;;;;31.82;21.55;97767.00;5082968;28;20511;-70
2022/07/15 10:22:13;;;;;;;5.60;2.20;;;;;;;31.55;22.33;97770.06;5083082;28;20424;-73
2022/07/15 10:25:07;;;;;;;5.77;5.23;;;;;;;31.56;22.33;97764.38;5082289;28;20503;-73
2022/07/15 10:27:52;;;;;;;5.50;3.60;;;;;;;31.36;21.73;97767.97;5077901;28;20515;-71
2022/07/15 10:30:23;;;;;;;3.60;2.20;;;;;;;31.34;22.54;97756.59;5081334;28;20444;-71
2022/07/15 10:33:03;;;;;;;2.90;2.10;;;;;;;31.22;21.90;97753.38;5085130;28;20997;-74
2022/07/15 10:35:46;;;;;;;4.60;2.47;;;;;;;31.16;21.93;97746.34;5078700;28;20425;-75
2022/07/15 10:38:33;;;;;;;2.13;2.03;;;;;;;31.24;22.21;97751.22;5058059;28;20416;-70
2022/07/15 10:41:10;;;;;;;3.97;2.23;;;;;;;31.15;22.17;97753.66;5072555;28;20522;-73
2022/07/15 10:43:51;;;;;;;6.40;1.90;;;;;;;31.29;22.27;97743.06;5078181;28;20501;-71
2022/07/15 10:46:16;;;;;;;2.43;1.93;;;;;;;31.50;22.21;97748.44;5072463;28;20432;-72
2022/07/15 10:48:50;;;;;;;5.67;2.00;;;;;;;31.43;21.47;97739.78;5064580;28;20433;-73
2022/07/15 10:51:34;;;;;;;4.17;2.27;;;;;;;31.47;22.25;97732.72;5064688;28;20208;-72
2022/07/15 10:54:00;;;;;;;8.57;2.17;;;;;;;31.47;22.36;97736.25;5058957;28;20483;-73
2022/07/15 10:56:26;;;;;;;5.47;3.40;;;;;;;31.59;22.40;97735.94;5073272;28;20470;-73
2022/07/15 10:59:11;;;;;;;3.93;2.10;;;;;;;31.74;22.22;97726.16;5072894;28;20429;-71
2022/07/15 11:01:40;;;;;;;4.20;2.10;;;;;;;31.78;22.04;97728.03;5077770;28;20264;-73
2022/07/15 11:04:11;;;;;;;7.47;3.97;;;;;;;32.02;21.86;97717.31;5072448;28;20422;-73
2022/07/15 11:07:02;;;;;;;6.63;3.10;;;;;;;32.25;21.73;97712.34;5075994;28;20874;-72
2022/07/15 11:09:53;;;;;;;4.40;3.57;;;;;;;32.48;21.68;97708.09;5084807;28;20545;-73
2022/07/15 11:12:30;;;;;;;6.13;2.10;;;;;;;32.65;21.26;97708.75;5066555;28;20465;-72
2022/07/15 11:15:04;;;;;;;3.30;1.87;;;;;;;32.73;20.91;97708.16;5069609;28;20421;-73
2022/07/15 11:17:29;;;;;;;3.47;2.10;;;;;;;32.83;21.04;97708.09;5077980;28;20400;-74
2022/07/15 11:20:01;;;;;;;10.97;6.53;;;;;;;32.68;21.50;97708.19;5081314;28;20532;-73
2022/07/15 11:22:28;;;;;;;6.83;4.70;;;;;;;32.40;21.14;97700.56;5091072;28;20517;-72
2022/07/15 11:24:55;;;;;;;5.40;2.40;;;;;;;32.21;21.12;97703.13;5083186;28;20835;-74
2022/07/15 11:27:21;;;;;;;2.33;1.90;;;;;;;31.90;21.50;97702.50;5090020;28;20798;-72
2022/07/15 11:30:02;;;;;;;4.43;2.00;;;;;;;31.72;22.61;97702.03;5078721;28;20614;-72
2022/07/15 11:32:30;;;;;;;7.10;2.70;;;;;;;32.01;22.01;97694.00;5083631;28;20478;-72
2022/07/15 11:34:57;;;;;;;7.87;2.00;;;;;;;32.25;21.80;97692.53;5087155;28;20924;-72
2022/07/15 11:37:28;;;;;;;7.50;6.30;;;;;;;32.43;21.42;97694.59;5085024;28;20425;-72
2022/07/15 11:45:47;;;;;;;9.77;2.20;;;;;;;33.01;21.27;97697.63;5083168;28;20473;-73
2022/07/15 11:48:13;;;;;;;3.40;2.20;;;;;;;33.09;20.52;97694.25;5079969;28;20459;-74
2022/07/15 11:50:50;;;;;;;3.50;2.30;;;;;;;33.08;20.41;97688.00;5075229;28;20201;-71